createdAt,value
2018-08-03T17:51:14.996Z,5.62
2018-08-03T17:53:43.224Z,5.40
2018-08-03T17:56:12.220Z,6.28
2018-08-03T17:58:40.705Z,5.78
2018-08-03T18:01:09.536Z,5.30
2018-08-03T18:03:38.021Z,5.55
2018-08-03T18:06:06.378Z,5.42
2018-08-03T18:08:34.686Z,4.95
2018-08-03T18:11:03.039Z,5.80
2018-08-03T18:13:31.565Z,5.97
2018-08-03T18:16:01.478Z,5.30
2018-08-03T18:18:29.816Z,5.40
2018-08-03T18:20:59.137Z,5.65
2018-08-03T18:23:27.428Z,5.35
2018-08-03T18:25:55.965Z,5.58
2018-08-03T18:28:24.454Z,5.65
2018-08-03T18:30:52.744Z,5.47
2018-08-03T18:33:22.139Z,6.12
2018-08-03T18:35:57.129Z,5.58
2018-08-03T18:38:25.357Z,5.58
2018-08-03T18:40:53.774Z,5.58
2018-08-03T18:43:22.317Z,6.00
2018-08-03T18:45:52.874Z,5.70
2018-08-03T18:48:30.911Z,5.67
2018-08-03T18:50:59.510Z,5.53
2018-08-03T18:53:29.197Z,5.30
2018-08-03T18:56:03.681Z,5.50
2018-08-03T18:58:34.318Z,5.30
2018-08-03T19:01:02.903Z,5.42
2018-08-03T19:03:31.450Z,5.50
2018-08-03T19:06:01.802Z,5.37
2018-08-03T19:08:30.919Z,5.25
2018-08-03T19:11:02.131Z,5.40
2018-08-03T19:13:30.463Z,5.70
2018-08-03T19:15:58.737Z,5.45
2018-08-03T19:18:26.929Z,5.78
2018-08-03T19:20:55.556Z,6.28
2018-08-03T19:23:25.815Z,6.03
2018-08-03T19:25:54.093Z,6.22
2018-08-03T19:28:22.304Z,5.75
2018-08-03T19:30:50.950Z,6.53
2018-08-03T19:33:24.374Z,6.22
2018-08-03T19:35:53.380Z,5.70
2018-08-03T19:38:21.716Z,6.12
2018-08-03T19:40:50.049Z,6.15
2018-08-03T19:43:18.375Z,6.30
2018-08-03T19:45:46.813Z,5.97
2018-08-03T19:48:15.133Z,5.85
2018-08-03T19:50:43.472Z,5.78
2018-08-03T19:53:11.898Z,5.83
2018-08-03T19:55:40.165Z,6.12
2018-08-03T19:58:08.352Z,6.33
2018-08-03T20:00:36.576Z,6.80
2018-08-03T20:03:04.773Z,5.85
2018-08-03T20:05:33.041Z,6.40
2018-08-03T20:08:01.285Z,6.20
2018-08-03T20:10:29.706Z,6.12
2018-08-03T20:12:59.021Z,5.97
2018-08-03T20:15:27.274Z,5.90
2018-08-03T20:17:55.766Z,5.60
2018-08-03T20:20:24.172Z,6.05
2018-08-03T20:22:52.605Z,6.37
2018-08-03T20:25:20.901Z,5.33
2018-08-03T20:27:49.217Z,5.92
2018-08-03T20:30:17.482Z,5.55
2018-08-03T20:32:45.865Z,5.58
2018-08-03T20:35:15.357Z,6.05
2018-08-03T20:37:43.572Z,6.40
2018-08-03T20:40:11.889Z,6.45
2018-08-03T20:42:41.426Z,5.87
2018-08-03T20:45:09.789Z,5.50
2018-08-03T20:47:38.098Z,5.67
2018-08-03T20:50:06.537Z,5.40
2018-08-03T20:52:34.935Z,5.77
2018-08-03T20:55:03.277Z,5.13
2018-08-03T20:57:31.690Z,5.70
2018-08-03T21:00:00.099Z,5.43
2018-08-03T21:02:28.377Z,5.43
2018-08-03T21:04:57.020Z,5.70
2018-08-03T21:07:25.379Z,6.23
2018-08-03T21:09:53.708Z,6.03
2018-08-03T21:12:22.135Z,5.90
2018-08-03T21:14:50.468Z,5.87
2018-08-03T21:17:18.890Z,6.40
2018-08-03T21:19:47.204Z,9.43
2018-08-03T21:22:15.696Z,7.03
2018-08-03T21:24:44.167Z,6.50
2018-08-03T21:27:12.561Z,6.60
2018-08-03T21:29:40.841Z,6.30
2018-08-03T21:32:09.216Z,6.33
2018-08-03T21:34:37.709Z,5.40
2018-08-03T21:37:06.192Z,5.57
2018-08-03T21:39:34.577Z,5.33
2018-08-03T21:42:05.188Z,5.70
2018-08-03T21:44:33.549Z,5.57
2018-08-03T21:47:01.804Z,5.37
2018-08-03T21:49:30.224Z,5.40
2018-08-03T21:51:58.531Z,5.00
2018-08-03T21:54:26.796Z,5.17
2018-08-03T21:56:55.073Z,5.40
2018-08-03T21:59:23.320Z,5.70
2018-08-03T22:01:51.604Z,5.37
2018-08-03T22:04:19.987Z,5.47
2018-08-03T22:06:48.340Z,5.87
2018-08-03T22:09:16.662Z,5.33
2018-08-03T22:11:45.021Z,5.17
2018-08-03T22:14:13.308Z,5.33
2018-08-03T22:16:42.694Z,4.60
2018-08-03T22:19:10.969Z,5.30
2018-08-03T22:21:39.324Z,5.07
2018-08-03T22:24:07.581Z,5.43
2018-08-03T22:26:35.901Z,4.70
2018-08-03T22:29:04.264Z,5.00
2018-08-03T22:31:32.604Z,4.73
2018-08-03T22:34:00.837Z,5.07
2018-08-03T22:36:29.101Z,4.70
2018-08-03T22:38:58.440Z,4.83
2018-08-03T22:41:26.722Z,4.90
2018-08-03T22:43:55.009Z,4.50
2018-08-03T22:46:23.368Z,4.50
2018-08-03T22:48:51.704Z,5.30
2018-08-03T22:51:20.085Z,4.70
2018-08-03T22:53:48.419Z,4.30
2018-08-03T22:56:16.750Z,3.97
2018-08-03T22:58:45.122Z,3.67
2018-08-03T23:01:13.500Z,4.60
2018-08-03T23:03:41.843Z,4.17
2018-08-03T23:06:10.297Z,3.93
2018-08-03T23:08:38.633Z,4.87
2018-08-03T23:11:07.133Z,4.27
2018-08-03T23:13:35.444Z,4.17
2018-08-03T23:16:03.892Z,4.03
2018-08-03T23:18:32.362Z,4.03
2018-08-03T23:21:00.713Z,4.00
2018-08-03T23:23:29.031Z,3.97
2018-08-03T23:25:57.460Z,3.83
2018-08-03T23:28:25.825Z,3.97
2018-08-03T23:30:54.282Z,4.10
2018-08-03T23:33:22.916Z,4.30
2018-08-03T23:35:51.264Z,3.87
2018-08-03T23:38:19.601Z,4.07
2018-08-03T23:40:47.975Z,4.03
2018-08-03T23:43:16.353Z,3.67
2018-08-03T23:45:44.706Z,3.70
2018-08-03T23:48:13.070Z,3.50
2018-08-03T23:50:41.324Z,3.73
2018-08-03T23:53:09.665Z,4.13
2018-08-03T23:55:37.931Z,3.90
2018-08-03T23:58:06.222Z,4.10
